sensor_id;sensor_type;location;lat;lon;timestamp;pressure;altitude;pressure_sealevel;temperature;humidity
73106;BME280;61559;50.476;15.588;2024-02-15T00:02:06;98095.04;;;5.01;92.59
73106;BME280;61559;50.476;15.588;2024-02-15T00:04:38;98094.23;;;4.99;92.59
73106;BME280;61559;50.476;15.588;2024-02-15T00:07:10;98097.48;;;4.99;92.47
73106;BME280;61559;50.476;15.588;2024-02-15T00:09:40;98097.19;;;4.98;92.39
73106;BME280;61559;50.476;15.588;2024-02-15T00:12:11;98098.00;;;4.97;92.61
73106;BME280;61559;50.476;15.588;2024-02-15T00:14:42;98094.58;;;4.96;92.60
73106;BME280;61559;50.476;15.588;2024-02-15T00:17:14;98091.11;;;4.94;92.61
73106;BME280;61559;50.476;15.588;2024-02-15T00:19:43;98085.85;;;4.92;92.66
73106;BME280;61559;50.476;15.588;2024-02-15T00:22:14;98086.16;;;4.88;92.70
73106;BME280;61559;50.476;15.588;2024-02-15T00:24:46;98082.37;;;4.86;92.68
73106;BME280;61559;50.476;15.588;2024-02-15T00:27:18;98081.66;;;4.82;92.66
73106;BME280;61559;50.476;15.588;2024-02-15T00:29:50;98088.03;;;4.77;92.62
73106;BME280;61559;50.476;15.588;2024-02-15T00:32:21;98087.87;;;4.73;92.73
73106;BME280;61559;50.476;15.588;2024-02-15T00:34:52;98088.07;;;4.70;92.79
73106;BME280;61559;50.476;15.588;2024-02-15T00:37:26;98086.43;;;4.69;92.76
73106;BME280;61559;50.476;15.588;2024-02-15T00:39:57;98087.76;;;4.67;92.77
73106;BME280;61559;50.476;15.588;2024-02-15T00:42:29;98094.70;;;4.65;92.76
73106;BME280;61559;50.476;15.588;2024-02-15T00:45:01;98088.73;;;4.64;92.94
73106;BME280;61559;50.476;15.588;2024-02-15T00:47:33;98084.79;;;4.63;92.95
73106;BME280;61559;50.476;15.588;2024-02-15T00:50:06;98082.34;;;4.60;92.95
73106;BME280;61559;50.476;15.588;2024-02-15T00:52:38;98082.54;;;4.57;92.99
73106;BME280;61559;50.476;15.588;2024-02-15T00:55:10;98083.35;;;4.55;93.15
73106;BME280;61559;50.476;15.588;2024-02-15T00:57:41;98083.09;;;4.54;93.08
73106;BME280;61559;50.476;15.588;2024-02-15T01:00:11;98081.20;;;4.55;93.03
73106;BME280;61559;50.476;15.588;2024-02-15T01:02:42;98076.97;;;4.54;93.19
73106;BME280;61559;50.476;15.588;2024-02-15T01:05:12;98073.20;;;4.54;93.25
73106;BME280;61559;50.476;15.588;2024-02-15T01:07:45;98070.53;;;4.53;93.22
73106;BME280;61559;50.476;15.588;2024-02-15T01:10:18;98068.45;;;4.51;93.16
73106;BME280;61559;50.476;15.588;2024-02-15T01:12:49;98064.58;;;4.49;93.13
73106;BME280;61559;50.476;15.588;2024-02-15T01:15:21;98060.63;;;4.48;93.20
73106;BME280;61559;50.476;15.588;2024-02-15T01:17:52;98057.92;;;4.47;93.34
73106;BME280;61559;50.476;15.588;2024-02-15T01:20:23;98060.58;;;4.47;93.22
73106;BME280;61559;50.476;15.588;2024-02-15T01:22:55;98068.80;;;4.46;93.21
73106;BME280;61559;50.476;15.588;2024-02-15T01:25:28;98075.52;;;4.40;93.27
73106;BME280;61559;50.476;15.588;2024-02-15T01:28:00;98071.42;;;4.35;93.38
73106;BME280;61559;50.476;15.588;2024-02-15T01:30:32;98073.52;;;4.33;93.42
73106;BME280;61559;50.476;15.588;2024-02-15T01:33:04;98074.24;;;4.33;93.33
73106;BME280;61559;50.476;15.588;2024-02-15T01:35:36;98068.23;;;4.32;93.37
73106;BME280;61559;50.476;15.588;2024-02-15T01:38:07;98063.54;;;4.32;93.40
73106;BME280;61559;50.476;15.588;2024-02-15T01:40:37;98063.95;;;4.32;93.41
73106;BME280;61559;50.476;15.588;2024-02-15T01:43:09;98062.81;;;4.31;93.48
73106;BME280;61559;50.476;15.588;2024-02-15T01:45:40;98060.27;;;4.32;93.43
73106;BME280;61559;50.476;15.588;2024-02-15T01:48:10;98060.27;;;4.32;93.40
73106;BME280;61559;50.476;15.588;2024-02-15T01:50:41;98062.30;;;4.29;93.53
73106;BME280;61559;50.476;15.588;2024-02-15T01:53:13;98061.16;;;4.23;93.48
73106;BME280;61559;50.476;15.588;2024-02-15T01:55:44;98061.15;;;4.19;93.52
73106;BME280;61559;50.476;15.588;2024-02-15T01:58:16;98061.39;;;4.17;93.64
73106;BME280;61559;50.476;15.588;2024-02-15T02:00:47;98058.48;;;4.14;93.61
73106;BME280;61559;50.476;15.588;2024-02-15T02:03:20;98056.86;;;4.13;93.61
73106;BME280;61559;50.476;15.588;2024-02-15T02:05:52;98054.66;;;4.14;93.53
73106;BME280;61559;50.476;15.588;2024-02-15T02:08:23;98050.23;;;4.15;93.53
73106;BME280;61559;50.476;15.588;2024-02-15T02:10:53;98047.38;;;4.15;93.39
73106;BME280;61559;50.476;15.588;2024-02-15T02:13:24;98044.15;;;4.13;93.40
73106;BME280;61559;50.476;15.588;2024-02-15T02:15:58;98045.08;;;4.13;93.42
73106;BME280;61559;50.476;15.588;2024-02-15T02:18:30;98046.50;;;4.13;93.28
73106;BME280;61559;50.476;15.588;2024-02-15T02:21:02;98042.93;;;4.13;93.34
73106;BME280;61559;50.476;15.588;2024-02-15T02:23:35;98040.54;;;4.13;93.30
73106;BME280;61559;50.476;15.588;2024-02-15T02:26:04;98041.46;;;4.14;93.39
73106;BME280;61559;50.476;15.588;2024-02-15T02:28:36;98040.04;;;4.13;93.52
73106;BME280;61559;50.476;15.588;2024-02-15T02:31:05;98041.20;;;4.13;93.55
73106;BME280;61559;50.476;15.588;2024-02-15T02:33:37;98038.34;;;4.11;93.61
73106;BME280;61559;50.476;15.588;2024-02-15T02:36:07;98038.80;;;4.13;93.67
73106;BME280;61559;50.476;15.588;2024-02-15T02:38:40;98032.79;;;4.12;93.86
73106;BME280;61559;50.476;15.588;2024-02-15T02:41:11;98032.17;;;4.13;93.80
73106;BME280;61559;50.476;15.588;2024-02-15T02:43:42;98031.11;;;4.15;93.79
73106;BME280;61559;50.476;15.588;2024-02-15T02:46:14;98030.34;;;4.17;93.79
73106;BME280;61559;50.476;15.588;2024-02-15T02:48:45;98031.27;;;4.20;93.77
73106;BME280;61559;50.476;15.588;2024-02-15T02:51:18;98030.57;;;4.21;93.75
73106;BME280;61559;50.476;15.588;2024-02-15T02:53:49;98035.97;;;4.22;93.81
73106;BME280;61559;50.476;15.588;2024-02-15T02:56:19;98033.83;;;4.22;93.67
73106;BME280;61559;50.476;15.588;2024-02-15T02:58:50;98034.48;;;4.19;93.73
73106;BME280;61559;50.476;15.588;2024-02-15T03:01:23;98036.52;;;4.20;93.84
73106;BME280;61559;50.476;15.588;2024-02-15T03:03:57;98039.39;;;4.21;93.93
73106;BME280;61559;50.476;15.588;2024-02-15T03:06:29;98033.02;;;4.23;94.05
73106;BME280;61559;50.476;15.588;2024-02-15T03:09:00;98032.46;;;4.25;94.14
73106;BME280;61559;50.476;15.588;2024-02-15T03:11:37;98035.47;;;4.27;94.03
73106;BME280;61559;50.476;15.588;2024-02-15T03:14:08;98035.79;;;4.30;94.14
73106;BME280;61559;50.476;15.588;2024-02-15T03:16:41;98037.98;;;4.33;94.16
73106;BME280;61559;50.476;15.588;2024-02-15T03:19:12;98036.95;;;4.35;94.09
73106;BME280;61559;50.476;15.588;2024-02-15T03:21:43;98032.88;;;4.38;93.99
73106;BME280;61559;50.476;15.588;2024-02-15T03:24:16;98037.11;;;4.41;94.09
73106;BME280;61559;50.476;15.588;2024-02-15T03:26:48;98035.94;;;4.43;93.98
73106;BME280;61559;50.476;15.588;2024-02-15T03:29:19;98036.35;;;4.46;93.95
73106;BME280;61559;50.476;15.588;2024-02-15T03:31:51;98034.67;;;4.47;94.00
73106;BME280;61559;50.476;15.588;2024-02-15T03:34:24;98036.10;;;4.48;93.92
73106;BME280;61559;50.476;15.588;2024-02-15T03:36:56;98038.19;;;4.49;93.98
73106;BME280;61559;50.476;15.588;2024-02-15T03:39:27;98036.83;;;4.50;93.97
73106;BME280;61559;50.476;15.588;2024-02-15T03:41:57;98039.22;;;4.53;93.98
73106;BME280;61559;50.476;15.588;2024-02-15T03:44:29;98036.21;;;4.53;93.93
73106;BME280;61559;50.476;15.588;2024-02-15T03:47:01;98035.80;;;4.55;93.93
73106;BME280;61559;50.476;15.588;2024-02-15T03:49:30;98040.86;;;4.55;94.00
73106;BME280;61559;50.476;15.588;2024-02-15T03:52:00;98042.38;;;4.54;93.93
73106;BME280;61559;50.476;15.588;2024-02-15T03:54:31;98042.59;;;4.53;94.06
73106;BME280;61559;50.476;15.588;2024-02-15T03:57:03;98037.59;;;4.52;94.15
73106;BME280;61559;50.476;15.588;2024-02-15T03:59:36;98035.70;;;4.52;94.08
73106;BME280;61559;50.476;15.588;2024-02-15T04:02:07;98032.54;;;4.55;94.03
73106;BME280;61559;50.476;15.588;2024-02-15T04:04:44;98031.58;;;4.57;94.02
73106;BME280;61559;50.476;15.588;2024-02-15T04:07:17;98033.86;;;4.58;94.00
73106;BME280;61559;50.476;15.588;2024-02-15T04:09:48;98038.06;;;4.61;94.02
73106;BME280;61559;50.476;15.588;2024-02-15T04:12:20;98042.95;;;4.63;94.05
73106;BME280;61559;50.476;15.588;2024-02-15T04:14:51;98046.23;;;4.65;93.98
73106;BME280;61559;50.476;15.588;2024-02-15T04:17:20;98051.89;;;4.65;93.90
73106;BME280;61559;50.476;15.588;2024-02-15T04:19:52;98048.05;;;4.63;93.98
73106;BME280;61559;50.476;15.588;2024-02-15T04:22:24;98049.39;;;4.66;94.15
73106;BME280;61559;50.476;15.588;2024-02-15T04:24:55;98049.04;;;4.69;94.22
73106;BME280;61559;50.476;15.588;2024-02-15T04:27:26;98048.33;;;4.71;94.12
73106;BME280;61559;50.476;15.588;2024-02-15T04:29:57;98046.02;;;4.73;94.18
73106;BME280;61559;50.476;15.588;2024-02-15T04:32:32;98044.50;;;4.70;94.10
73106;BME280;61559;50.476;15.588;2024-02-15T04:35:05;98046.28;;;4.69;94.17
73106;BME280;61559;50.476;15.588;2024-02-15T04:37:39;98047.66;;;4.67;94.12
73106;BME280;61559;50.476;15.588;2024-02-15T04:40:11;98045.97;;;4.66;94.22
73106;BME280;61559;50.476;15.588;2024-02-15T04:42:43;98047.91;;;4.66;94.37
73106;BME280;61559;50.476;15.588;2024-02-15T04:45:17;98044.54;;;4.66;94.46
73106;BME280;61559;50.476;15.588;2024-02-15T04:47:50;98041.27;;;4.67;94.49
73106;BME280;61559;50.476;15.588;2024-02-15T04:50:23;98041.89;;;4.69;94.46
73106;BME280;61559;50.476;15.588;2024-02-15T04:52:55;98043.27;;;4.71;94.56
73106;BME280;61559;50.476;15.588;2024-02-15T04:55:27;98044.09;;;4.73;94.54
73106;BME280;61559;50.476;15.588;2024-02-15T04:58:01;98046.80;;;4.76;94.55
73106;BME280;61559;50.476;15.588;2024-02-15T05:00:34;98046.13;;;4.79;94.58
73106;BME280;61559;50.476;15.588;2024-02-15T05:03:06;98045.48;;;4.81;94.55
73106;BME280;61559;50.476;15.588;2024-02-15T05:05:38;98047.83;;;4.83;94.51
73106;BME280;61559;50.476;15.588;2024-02-15T05:08:09;98048.84;;;4.85;94.60
73106;BME280;61559;50.476;15.588;2024-02-15T05:10:40;98045.63;;;4.88;94.46
73106;BME280;61559;50.476;15.588;2024-02-15T05:13:11;98042.77;;;4.91;94.51
73106;BME280;61559;50.476;15.588;2024-02-15T05:15:43;98043.27;;;4.93;94.34
73106;BME280;61559;50.476;15.588;2024-02-15T05:18:15;98047.92;;;4.94;94.28
73106;BME280;61559;50.476;15.588;2024-02-15T05:20:47;98046.14;;;4.96;94.24
73106;BME280;61559;50.476;15.588;2024-02-15T05:23:18;98047.16;;;4.98;94.20
73106;BME280;61559;50.476;15.588;2024-02-15T05:25:50;98041.90;;;5.00;94.19
73106;BME280;61559;50.476;15.588;2024-02-15T05:28:21;98048.58;;;5.02;94.23
73106;BME280;61559;50.476;15.588;2024-02-15T05:31:11;98051.23;;;5.03;94.11
73106;BME280;61559;50.476;15.588;2024-02-15T05:33:44;98048.69;;;5.04;94.04
73106;BME280;61559;50.476;15.588;2024-02-15T05:36:19;98051.65;;;5.06;94.03
73106;BME280;61559;50.476;15.588;2024-02-15T05:38:52;98056.70;;;5.07;93.98
73106;BME280;61559;50.476;15.588;2024-02-15T05:41:23;98055.06;;;5.09;94.01
73106;BME280;61559;50.476;15.588;2024-02-15T05:43:54;98053.89;;;5.11;93.97
73106;BME280;61559;50.476;15.588;2024-02-15T05:46:28;98055.48;;;5.12;93.88
73106;BME280;61559;50.476;15.588;2024-02-15T05:48:59;98059.52;;;5.14;93.89
73106;BME280;61559;50.476;15.588;2024-02-15T05:51:32;98058.08;;;5.15;93.90
73106;BME280;61559;50.476;15.588;2024-02-15T05:54:04;98060.63;;;5.17;93.83
73106;BME280;61559;50.476;15.588;2024-02-15T05:56:35;98064.91;;;5.19;93.76
73106;BME280;61559;50.476;15.588;2024-02-15T05:59:06;98067.63;;;5.19;93.65
73106;BME280;61559;50.476;15.588;2024-02-15T06:01:40;98061.54;;;5.20;93.68
73106;BME280;61559;50.476;15.588;2024-02-15T06:04:12;98063.48;;;5.19;93.68
73106;BME280;61559;50.476;15.588;2024-02-15T06:06:44;98058.64;;;5.17;93.73
73106;BME280;61559;50.476;15.588;2024-02-15T06:09:19;98055.98;;;5.13;93.73
73106;BME280;61559;50.476;15.588;2024-02-15T06:11:51;98053.64;;;5.12;93.93
73106;BME280;61559;50.476;15.588;2024-02-15T06:14:25;98057.92;;;5.11;93.96
73106;BME280;61559;50.476;15.588;2024-02-15T06:16:57;98056.75;;;5.10;93.97
73106;BME280;61559;50.476;15.588;2024-02-15T06:19:28;98060.89;;;5.10;94.02
73106;BME280;61559;50.476;15.588;2024-02-15T06:21:57;98059.66;;;5.11;94.10
73106;BME280;61559;50.476;15.588;2024-02-15T06:24:28;98060.38;;;5.11;94.17
73106;BME280;61559;50.476;15.588;2024-02-15T06:26:59;98062.83;;;5.13;94.24
73106;BME280;61559;50.476;15.588;2024-02-15T06:29:31;98067.02;;;5.15;94.23
73106;BME280;61559;50.476;15.588;2024-02-15T06:32:20;98069.05;;;5.16;94.23
73106;BME280;61559;50.476;15.588;2024-02-15T06:35:09;98069.00;;;5.17;94.27
73106;BME280;61559;50.476;15.588;2024-02-15T06:37:57;98073.44;;;5.19;94.29
73106;BME280;61559;50.476;15.588;2024-02-15T06:40:46;98079.59;;;5.21;94.32
73106;BME280;61559;50.476;15.588;2024-02-15T06:43:17;98083.06;;;5.24;94.37
73106;BME280;61559;50.476;15.588;2024-02-15T06:45:48;98080.97;;;5.26;94.44
73106;BME280;61559;50.476;15.588;2024-02-15T06:48:20;98082.64;;;5.29;94.41
73106;BME280;61559;50.476;15.588;2024-02-15T06:50:52;98083.31;;;5.32;94.42
73106;BME280;61559;50.476;15.588;2024-02-15T06:53:23;98089.19;;;5.36;94.46
73106;BME280;61559;50.476;15.588;2024-02-15T06:55:54;98093.16;;;5.37;94.41
73106;BME280;61559;50.476;15.588;2024-02-15T06:58:26;98089.95;;;5.37;94.31
73106;BME280;61559;50.476;15.588;2024-02-15T14:23:57;98007.07;;;8.84;100.00
73106;BME280;61559;50.476;15.588;2024-02-15T14:26:33;98008.23;;;8.82;100.00
73106;BME280;61559;50.476;15.588;2024-02-15T14:29:04;98009.11;;;8.81;100.00
73106;BME280;61559;50.476;15.588;2024-02-15T14:31:35;98010.94;;;8.83;100.00
73106;BME280;61559;50.476;15.588;2024-02-15T14:34:24;98011.88;;;8.85;100.00
73106;BME280;61559;50.476;15.588;2024-02-15T14:36:56;98014.02;;;8.86;100.00
73106;BME280;61559;50.476;15.588;2024-02-15T14:39:31;98012.30;;;8.88;100.00
73106;BME280;61559;50.476;15.588;2024-02-15T14:42:04;98019.18;;;8.91;100.00
73106;BME280;61559;50.476;15.588;2024-02-15T14:44:47;98022.17;;;8.93;100.00
73106;BME280;61559;50.476;15.588;2024-02-15T14:47:20;98023.45;;;8.94;100.00
73106;BME280;61559;50.476;15.588;2024-02-15T14:49:52;98022.52;;;8.94;100.00
73106;BME280;61559;50.476;15.588;2024-02-15T14:52:23;98030.59;;;8.94;99.96
73106;BME280;61559;50.476;15.588;2024-02-15T14:54:54;98026.75;;;8.92;99.98
73106;BME280;61559;50.476;15.588;2024-02-15T14:57:27;98026.94;;;8.90;99.87
73106;BME280;61559;50.476;15.588;2024-02-15T14:59:58;98025.96;;;8.87;99.84
73106;BME280;61559;50.476;15.588;2024-02-15T15:02:36;98024.94;;;8.87;99.98
73106;BME280;61559;50.476;15.588;2024-02-15T15:05:09;98024.61;;;8.88;100.00
73106;BME280;61559;50.476;15.588;2024-02-15T15:07:58;98026.54;;;8.90;100.00
73106;BME280;61559;50.476;15.588;2024-02-15T15:10:48;98026.37;;;8.91;100.00
73106;BME280;61559;50.476;15.588;2024-02-15T15:13:37;98029.14;;;8.92;99.99
73106;BME280;61559;50.476;15.588;2024-02-15T15:16:09;98025.86;;;8.91;100.00
73106;BME280;61559;50.476;15.588;2024-02-15T15:18:45;98029.80;;;8.89;99.98
73106;BME280;61559;50.476;15.588;2024-02-15T15:21:18;98032.78;;;8.88;100.00
73106;BME280;61559;50.476;15.588;2024-02-15T15:23:51;98028.63;;;8.88;100.00
73106;BME280;61559;50.476;15.588;2024-02-15T15:26:23;98031.64;;;8.85;100.00
73106;BME280;61559;50.476;15.588;2024-02-15T15:28:54;98030.21;;;8.82;100.00
73106;BME280;61559;50.476;15.588;2024-02-15T15:31:27;98031.73;;;8.80;100.00
73106;BME280;61559;50.476;15.588;2024-02-15T15:34:00;98031.63;;;8.80;100.00
73106;BME280;61559;50.476;15.588;2024-02-15T15:36:32;98029.68;;;8.79;100.00
73106;BME280;61559;50.476;15.588;2024-02-15T15:39:03;98028.23;;;8.79;100.00
73106;BME280;61559;50.476;15.588;2024-02-15T15:41:39;98027.98;;;8.80;100.00
73106;BME280;61559;50.476;15.588;2024-02-15T15:44:10;98024.29;;;8.80;100.00
73106;BME280;61559;50.476;15.588;2024-02-15T15:46:42;98022.93;;;8.78;100.00
73106;BME280;61559;50.476;15.588;2024-02-15T15:49:13;98021.68;;;8.75;99.99
73106;BME280;61559;50.476;15.588;2024-02-15T15:51:44;98018.45;;;8.69;100.00
73106;BME280;61559;50.476;15.588;2024-02-15T15:54:17;98016.23;;;8.62;100.00
73106;BME280;61559;50.476;15.588;2024-02-15T15:56:49;98016.35;;;8.57;100.00
73106;BME280;61559;50.476;15.588;2024-02-15T15:59:20;98014.70;;;8.54;100.00
73106;BME280;61559;50.476;15.588;2024-02-15T16:01:52;98017.73;;;8.53;100.00
73106;BME280;61559;50.476;15.588;2024-02-15T16:04:23;98013.15;;;8.54;100.00
73106;BME280;61559;50.476;15.588;2024-02-15T16:06:55;98014.93;;;8.56;100.00
73106;BME280;61559;50.476;15.588;2024-02-15T16:09:27;98020.24;;;8.57;100.00
73106;BME280;61559;50.476;15.588;2024-02-15T16:11:58;98018.08;;;8.58;100.00
73106;BME280;61559;50.476;15.588;2024-02-15T16:14:29;98018.12;;;8.59;100.00
73106;BME280;61559;50.476;15.588;2024-02-15T16:17:01;98010.45;;;8.57;100.00
73106;BME280;61559;50.476;15.588;2024-02-15T16:19:35;98008.33;;;8.54;100.00
73106;BME280;61559;50.476;15.588;2024-02-15T16:22:07;98016.14;;;8.49;100.00
73106;BME280;61559;50.476;15.588;2024-02-15T16:24:38;98020.45;;;8.46;100.00
73106;BME280;61559;50.476;15.588;2024-02-15T16:27:10;98017.81;;;8.40;100.00
73106;BME280;61559;50.476;15.588;2024-02-15T16:29:41;98012.08;;;8.36;100.00
73106;BME280;61559;50.476;15.588;2024-02-15T16:32:12;98011.60;;;8.32;100.00
73106;BME280;61559;50.476;15.588;2024-02-15T16:34:44;98011.16;;;8.30;100.00
73106;BME280;61559;50.476;15.588;2024-02-15T16:37:15;98010.96;;;8.25;100.00
73106;BME280;61559;50.476;15.588;2024-02-15T16:39:48;98012.93;;;8.20;100.00
73106;BME280;61559;50.476;15.588;2024-02-15T16:42:19;98009.55;;;8.16;100.00
73106;BME280;61559;50.476;15.588;2024-02-15T16:44:52;98008.67;;;8.13;100.00
73106;BME280;61559;50.476;15.588;2024-02-15T16:47:23;98007.16;;;8.07;100.00
73106;BME280;61559;50.476;15.588;2024-02-15T16:49:55;98010.80;;;8.03;100.00
73106;BME280;61559;50.476;15.588;2024-02-15T16:52:27;98014.84;;;8.00;100.00
73106;BME280;61559;50.476;15.588;2024-02-15T16:54:58;98009.25;;;8.00;100.00
73106;BME280;61559;50.476;15.588;2024-02-15T16:57:31;98012.45;;;8.02;100.00
73106;BME280;61559;50.476;15.588;2024-02-15T17:00:03;98013.85;;;8.02;100.00
73106;BME280;61559;50.476;15.588;2024-02-15T17:02:36;98017.34;;;8.02;100.00
73106;BME280;61559;50.476;15.588;2024-02-15T17:05:09;98018.29;;;8.03;100.00
73106;BME280;61559;50.476;15.588;2024-02-15T17:07:40;98021.65;;;8.05;100.00
73106;BME280;61559;50.476;15.588;2024-02-15T17:10:13;98024.89;;;8.08;100.00
73106;BME280;61559;50.476;15.588;2024-02-15T17:12:44;98022.86;;;8.11;100.00
73106;BME280;61559;50.476;15.588;2024-02-15T17:15:16;98024.89;;;8.13;100.00
73106;BME280;61559;50.476;15.588;2024-02-15T17:17:47;98024.55;;;8.15;100.00
73106;BME280;61559;50.476;15.588;2024-02-15T17:20:19;98025.41;;;8.16;100.00
73106;BME280;61559;50.476;15.588;2024-02-15T17:22:53;98024.42;;;8.17;100.00
73106;BME280;61559;50.476;15.588;2024-02-15T17:25:26;98025.89;;;8.18;100.00
73106;BME280;61559;50.476;15.588;2024-02-15T17:27:57;98021.61;;;8.19;100.00
73106;BME280;61559;50.476;15.588;2024-02-15T17:30:29;98024.83;;;8.20;100.00
73106;BME280;61559;50.476;15.588;2024-02-15T17:33:01;98026.33;;;8.24;100.00
73106;BME280;61559;50.476;15.588;2024-02-15T17:35:36;98025.48;;;8.26;100.00
73106;BME280;61559;50.476;15.588;2024-02-15T17:38:08;98026.69;;;8.27;100.00
73106;BME280;61559;50.476;15.588;2024-02-15T17:40:41;98030.16;;;8.29;100.00
73106;BME280;61559;50.476;15.588;2024-02-15T17:43:13;98028.95;;;8.31;100.00
73106;BME280;61559;50.476;15.588;2024-02-15T17:45:45;98024.23;;;8.32;100.00
73106;BME280;61559;50.476;15.588;2024-02-15T17:48:17;98020.74;;;8.31;100.00
73106;BME280;61559;50.476;15.588;2024-02-15T17:50:50;98014.64;;;8.31;100.00
73106;BME280;61559;50.476;15.588;2024-02-15T17:53:22;98015.28;;;8.29;100.00
73106;BME280;61559;50.476;15.588;2024-02-15T17:55:54;98018.16;;;8.28;100.00
73106;BME280;61559;50.476;15.588;2024-02-15T17:58:29;98019.06;;;8.26;100.00
73106;BME280;61559;50.476;15.588;2024-02-15T18:01:01;98018.79;;;8.24;100.00
73106;BME280;61559;50.476;15.588;2024-02-15T18:03:35;98023.48;;;8.22;100.00
73106;BME280;61559;50.476;15.588;2024-02-15T18:06:07;98026.92;;;8.21;100.00
73106;BME280;61559;50.476;15.588;2024-02-15T18:08:39;98029.14;;;8.20;100.00
73106;BME280;61559;50.476;15.588;2024-02-15T18:11:11;98031.51;;;8.21;100.00
73106;BME280;61559;50.476;15.588;2024-02-15T18:13:42;98028.95;;;8.20;100.00
73106;BME280;61559;50.476;15.588;2024-02-15T18:16:14;98028.23;;;8.20;100.00
73106;BME280;61559;50.476;15.588;2024-02-15T18:18:47;98029.39;;;8.17;100.00
73106;BME280;61559;50.476;15.588;2024-02-15T18:21:19;98028.69;;;8.16;100.00
73106;BME280;61559;50.476;15.588;2024-02-15T18:23:50;98025.66;;;8.16;100.00
73106;BME280;61559;50.476;15.588;2024-02-15T18:26:22;98030.98;;;8.14;99.74
73106;BME280;61559;50.476;15.588;2024-02-15T18:28:53;98030.63;;;8.13;99.79
73106;BME280;61559;50.476;15.588;2024-02-15T18:31:23;98025.41;;;8.12;99.77
73106;BME280;61559;50.476;15.588;2024-02-15T18:33:54;98019.77;;;8.08;99.82
73106;BME280;61559;50.476;15.588;2024-02-15T18:36:26;98017.80;;;8.06;99.83
73106;BME280;61559;50.476;15.588;2024-02-15T18:38:57;98017.55;;;8.05;99.83
73106;BME280;61559;50.476;15.588;2024-02-15T18:41:31;98009.50;;;8.04;99.75
73106;BME280;61559;50.476;15.588;2024-02-15T18:44:02;98002.40;;;8.02;99.67
73106;BME280;61559;50.476;15.588;2024-02-15T18:46:34;97994.33;;;7.99;99.53
73106;BME280;61559;50.476;15.588;2024-02-15T18:49:10;97993.74;;;7.97;99.41
73106;BME280;61559;50.476;15.588;2024-02-15T18:52:00;97996.16;;;7.93;99.37
73106;BME280;61559;50.476;15.588;2024-02-15T18:54:31;97990.91;;;7.90;99.22
73106;BME280;61559;50.476;15.588;2024-02-15T18:57:03;97992.02;;;7.87;99.33
73106;BME280;61559;50.476;15.588;2024-02-15T18:59:35;97989.66;;;7.83;99.42
73106;BME280;61559;50.476;15.588;2024-02-15T19:02:07;97995.39;;;7.81;99.40
73106;BME280;61559;50.476;15.588;2024-02-15T19:04:40;97997.90;;;7.79;99.30
73106;BME280;61559;50.476;15.588;2024-02-15T19:07:11;98000.63;;;7.78;99.46
73106;BME280;61559;50.476;15.588;2024-02-15T19:09:43;98001.82;;;7.77;99.38
73106;BME280;61559;50.476;15.588;2024-02-15T19:12:14;98001.61;;;7.76;99.40
73106;BME280;61559;50.476;15.588;2024-02-15T19:14:46;97999.50;;;7.77;99.42
73106;BME280;61559;50.476;15.588;2024-02-15T19:17:17;98001.41;;;7.77;99.42
73106;BME280;61559;50.476;15.588;2024-02-15T19:19:49;97998.64;;;7.77;99.35
73106;BME280;61559;50.476;15.588;2024-02-15T19:22:21;98004.17;;;7.77;99.36
73106;BME280;61559;50.476;15.588;2024-02-15T19:24:54;98010.58;;;7.78;99.37
73106;BME280;61559;50.476;15.588;2024-02-15T19:27:25;98005.66;;;7.77;99.33
73106;BME280;61559;50.476;15.588;2024-02-15T19:29:56;98003.05;;;7.77;99.40
73106;BME280;61559;50.476;15.588;2024-02-15T19:32:28;98002.70;;;7.76;99.23
73106;BME280;61559;50.476;15.588;2024-02-15T19:35:02;97998.72;;;7.74;99.23
73106;BME280;61559;50.476;15.588;2024-02-15T19:37:33;97993.48;;;7.71;99.13
73106;BME280;61559;50.476;15.588;2024-02-15T19:40:06;97992.50;;;7.67;99.11
73106;BME280;61559;50.476;15.588;2024-02-15T19:42:41;97990.16;;;7.65;99.34
73106;BME280;61559;50.476;15.588;2024-02-15T19:45:13;97987.61;;;7.64;99.45
73106;BME280;61559;50.476;15.588;2024-02-15T19:47:48;97984.03;;;7.64;99.86
73106;BME280;61559;50.476;15.588;2024-02-15T19:50:21;97980.27;;;7.65;100.00
73106;BME280;61559;50.476;15.588;2024-02-15T19:52:56;97976.59;;;7.64;100.00
73106;BME280;61559;50.476;15.588;2024-02-15T19:55:32;97978.27;;;7.62;100.00
73106;BME280;61559;50.476;15.588;2024-02-15T19:58:04;97976.67;;;7.61;100.00
73106;BME280;61559;50.476;15.588;2024-02-15T20:00:35;97976.69;;;7.61;100.00
73106;BME280;61559;50.476;15.588;2024-02-15T20:03:07;97980.48;;;7.61;100.00
73106;BME280;61559;50.476;15.588;2024-02-15T20:05:38;97982.20;;;7.62;100.00
73106;BME280;61559;50.476;15.588;2024-02-15T20:08:10;97985.44;;;7.62;100.00
73106;BME280;61559;50.476;15.588;2024-02-15T20:10:39;97984.10;;;7.63;100.00
73106;BME280;61559;50.476;15.588;2024-02-15T20:13:10;97987.34;;;7.62;100.00
73106;BME280;61559;50.476;15.588;2024-02-15T20:15:42;97988.45;;;7.63;100.00
73106;BME280;61559;50.476;15.588;2024-02-15T20:18:14;97992.80;;;7.64;100.00
73106;BME280;61559;50.476;15.588;2024-02-15T20:20:46;97992.48;;;7.66;100.00
73106;BME280;61559;50.476;15.588;2024-02-15T20:23:18;97994.86;;;7.67;100.00
73106;BME280;61559;50.476;15.588;2024-02-15T20:25:50;97996.84;;;7.68;100.00
73106;BME280;61559;50.476;15.588;2024-02-15T20:28:21;97993.19;;;7.70;100.00
73106;BME280;61559;50.476;15.588;2024-02-15T20:30:52;97988.45;;;7.71;100.00
73106;BME280;61559;50.476;15.588;2024-02-15T20:33:26;97992.23;;;7.72;100.00
73106;BME280;61559;50.476;15.588;2024-02-15T20:35:58;97992.85;;;7.73;100.00
73106;BME280;61559;50.476;15.588;2024-02-15T20:38:30;97994.33;;;7.73;100.00
73106;BME280;61559;50.476;15.588;2024-02-15T20:41:02;97989.80;;;7.74;100.00
73106;BME280;61559;50.476;15.588;2024-02-15T20:43:35;97986.35;;;7.75;100.00
73106;BME280;61559;50.476;15.588;2024-02-15T20:46:05;97987.01;;;7.77;100.00
73106;BME280;61559;50.476;15.588;2024-02-15T20:48:39;97983.77;;;7.76;100.00